sensor_id;sensor_type;location;lat;lon;timestamp;P1;durP1;ratioP1;P2;durP2;ratioP2
25854;SDS011;13680;49.936;11.344;2023-05-24T00:01:04;11.93;;;3.75;;
25854;SDS011;13680;49.936;11.344;2023-05-24T00:03:31;12.25;;;3.90;;
25854;SDS011;13680;49.936;11.344;2023-05-24T00:05:59;21.60;;;4.07;;
25854;SDS011;13680;49.936;11.344;2023-05-24T00:08:25;16.10;;;3.58;;
25854;SDS011;13680;49.936;11.344;2023-05-24T00:10:50;14.95;;;3.95;;
25854;SDS011;13680;49.936;11.344;2023-05-24T00:13:16;13.45;;;3.63;;
25854;SDS011;13680;49.936;11.344;2023-05-24T00:15:41;12.85;;;3.72;;
25854;SDS011;13680;49.936;11.344;2023-05-24T00:18:07;11.98;;;3.72;;
25854;SDS011;13680;49.936;11.344;2023-05-24T00:20:32;11.98;;;3.70;;
25854;SDS011;13680;49.936;11.344;2023-05-24T00:22:57;13.63;;;4.03;;
25854;SDS011;13680;49.936;11.344;2023-05-24T00:25:22;14.80;;;3.78;;
25854;SDS011;13680;49.936;11.344;2023-05-24T00:27:48;15.77;;;4.82;;
25854;SDS011;13680;49.936;11.344;2023-05-24T00:30:13;13.05;;;3.45;;
25854;SDS011;13680;49.936;11.344;2023-05-24T00:32:39;17.73;;;4.00;;
25854;SDS011;13680;49.936;11.344;2023-05-24T00:35:04;14.25;;;4.53;;
25854;SDS011;13680;49.936;11.344;2023-05-24T00:37:30;13.63;;;4.13;;
25854;SDS011;13680;49.936;11.344;2023-05-24T00:39:55;17.33;;;5.18;;
25854;SDS011;13680;49.936;11.344;2023-05-24T00:42:20;20.85;;;4.25;;
25854;SDS011;13680;49.936;11.344;2023-05-24T00:44:46;18.10;;;4.88;;
25854;SDS011;13680;49.936;11.344;2023-05-24T00:47:11;15.32;;;4.35;;
25854;SDS011;13680;49.936;11.344;2023-05-24T00:49:36;20.13;;;3.83;;
25854;SDS011;13680;49.936;11.344;2023-05-24T00:52:02;15.77;;;4.00;;
25854;SDS011;13680;49.936;11.344;2023-05-24T00:54:29;19.00;;;4.28;;
25854;SDS011;13680;49.936;11.344;2023-05-24T00:56:54;14.77;;;4.15;;
25854;SDS011;13680;49.936;11.344;2023-05-24T00:59:20;12.65;;;3.70;;
25854;SDS011;13680;49.936;11.344;2023-05-24T01:01:50;12.35;;;3.80;;
25854;SDS011;13680;49.936;11.344;2023-05-24T01:04:16;16.23;;;4.30;;
25854;SDS011;13680;49.936;11.344;2023-05-24T01:06:44;11.98;;;3.60;;
25854;SDS011;13680;49.936;11.344;2023-05-24T01:12:29;17.58;;;3.72;;
25854;SDS011;13680;49.936;11.344;2023-05-24T01:18:32;15.23;;;3.95;;
25854;SDS011;13680;49.936;11.344;2023-05-24T01:20:41;17.75;;;4.10;;
25854;SDS011;13680;49.936;11.344;2023-05-24T01:25:51;17.48;;;4.38;;
25854;SDS011;13680;49.936;11.344;2023-05-24T01:28:27;13.68;;;4.05;;
25854;SDS011;13680;49.936;11.344;2023-05-24T01:30:53;18.15;;;4.15;;
25854;SDS011;13680;49.936;11.344;2023-05-24T01:33:19;11.70;;;3.40;;
25854;SDS011;13680;49.936;11.344;2023-05-24T01:35:45;19.02;;;4.20;;
25854;SDS011;13680;49.936;11.344;2023-05-24T01:38:10;11.70;;;3.60;;
25854;SDS011;13680;49.936;11.344;2023-05-24T01:40:36;14.32;;;3.75;;
25854;SDS011;13680;49.936;11.344;2023-05-24T01:48:18;12.30;;;3.40;;
25854;SDS011;13680;49.936;11.344;2023-05-24T01:50:58;12.60;;;3.33;;
25854;SDS011;13680;49.936;11.344;2023-05-24T01:53:27;13.68;;;3.67;;
25854;SDS011;13680;49.936;11.344;2023-05-24T01:55:57;12.15;;;3.53;;
25854;SDS011;13680;49.936;11.344;2023-05-24T01:58:26;16.98;;;4.07;;
25854;SDS011;13680;49.936;11.344;2023-05-24T02:00:53;16.98;;;4.03;;
25854;SDS011;13680;49.936;11.344;2023-05-24T02:03:19;17.02;;;4.20;;
25854;SDS011;13680;49.936;11.344;2023-05-24T02:05:45;10.70;;;3.88;;
25854;SDS011;13680;49.936;11.344;2023-05-24T02:08:11;14.30;;;3.60;;
25854;SDS011;13680;49.936;11.344;2023-05-24T02:10:37;21.67;;;4.38;;
25854;SDS011;13680;49.936;11.344;2023-05-24T02:13:03;17.67;;;3.97;;
25854;SDS011;13680;49.936;11.344;2023-05-24T02:15:30;15.70;;;3.80;;
25854;SDS011;13680;49.936;11.344;2023-05-24T02:17:55;13.05;;;4.22;;
25854;SDS011;13680;49.936;11.344;2023-05-24T02:20:21;14.00;;;3.72;;
25854;SDS011;13680;49.936;11.344;2023-05-24T02:22:49;15.27;;;4.95;;
25854;SDS011;13680;49.936;11.344;2023-05-24T02:25:15;13.25;;;3.47;;
25854;SDS011;13680;49.936;11.344;2023-05-24T02:27:40;15.68;;;3.58;;
25854;SDS011;13680;49.936;11.344;2023-05-24T02:30:06;13.35;;;3.90;;
25854;SDS011;13680;49.936;11.344;2023-05-24T02:32:32;14.98;;;3.30;;
25854;SDS011;13680;49.936;11.344;2023-05-24T02:34:58;10.45;;;3.33;;
25854;SDS011;13680;49.936;11.344;2023-05-24T02:37:26;18.42;;;3.92;;
25854;SDS011;13680;49.936;11.344;2023-05-24T02:39:51;10.48;;;3.75;;
25854;SDS011;13680;49.936;11.344;2023-05-24T02:42:17;15.60;;;3.53;;
25854;SDS011;13680;49.936;11.344;2023-05-24T02:44:42;10.70;;;3.30;;
25854;SDS011;13680;49.936;11.344;2023-05-24T02:47:12;12.57;;;3.28;;
25854;SDS011;13680;49.936;11.344;2023-05-24T02:49:37;14.30;;;2.85;;
25854;SDS011;13680;49.936;11.344;2023-05-24T02:52:03;11.68;;;3.47;;
25854;SDS011;13680;49.936;11.344;2023-05-24T02:54:29;10.55;;;3.15;;
25854;SDS011;13680;49.936;11.344;2023-05-24T02:56:54;17.02;;;3.55;;
25854;SDS011;13680;49.936;11.344;2023-05-24T02:59:20;18.10;;;3.47;;
25854;SDS011;13680;49.936;11.344;2023-05-24T03:01:46;12.98;;;3.55;;
25854;SDS011;13680;49.936;11.344;2023-05-24T03:04:11;15.27;;;3.53;;
25854;SDS011;13680;49.936;11.344;2023-05-24T03:06:37;14.50;;;3.53;;
25854;SDS011;13680;49.936;11.344;2023-05-24T03:09:02;18.15;;;3.95;;
25854;SDS011;13680;49.936;11.344;2023-05-24T03:11:27;13.27;;;3.40;;
25854;SDS011;13680;49.936;11.344;2023-05-24T03:13:53;20.25;;;4.10;;
25854;SDS011;13680;49.936;11.344;2023-05-24T03:16:18;14.43;;;3.25;;
25854;SDS011;13680;49.936;11.344;2023-05-24T03:18:44;12.05;;;3.67;;
25854;SDS011;13680;49.936;11.344;2023-05-24T03:21:10;20.88;;;3.55;;
25854;SDS011;13680;49.936;11.344;2023-05-24T03:23:35;14.18;;;3.25;;
25854;SDS011;13680;49.936;11.344;2023-05-24T03:26:00;14.10;;;3.58;;
25854;SDS011;13680;49.936;11.344;2023-05-24T03:28:26;15.43;;;3.42;;
25854;SDS011;13680;49.936;11.344;2023-05-24T03:30:51;17.40;;;4.22;;
25854;SDS011;13680;49.936;11.344;2023-05-24T03:33:17;9.70;;;3.03;;
25854;SDS011;13680;49.936;11.344;2023-05-24T03:35:42;18.83;;;3.58;;
25854;SDS011;13680;49.936;11.344;2023-05-24T03:38:07;14.60;;;3.67;;
25854;SDS011;13680;49.936;11.344;2023-05-24T03:40:33;19.23;;;3.78;;
25854;SDS011;13680;49.936;11.344;2023-05-24T03:42:58;15.48;;;3.45;;
25854;SDS011;13680;49.936;11.344;2023-05-24T03:45:24;19.80;;;3.55;;
25854;SDS011;13680;49.936;11.344;2023-05-24T03:47:49;12.48;;;3.20;;
25854;SDS011;13680;49.936;11.344;2023-05-24T03:50:15;16.25;;;4.15;;
25854;SDS011;13680;49.936;11.344;2023-05-24T03:52:40;16.95;;;3.40;;
25854;SDS011;13680;49.936;11.344;2023-05-24T03:55:06;10.38;;;3.33;;
25854;SDS011;13680;49.936;11.344;2023-05-24T03:57:32;21.48;;;3.72;;
25854;SDS011;13680;49.936;11.344;2023-05-24T03:59:57;14.75;;;3.40;;
25854;SDS011;13680;49.936;11.344;2023-05-24T04:02:24;16.08;;;4.10;;
25854;SDS011;13680;49.936;11.344;2023-05-24T04:04:49;14.77;;;4.00;;
25854;SDS011;13680;49.936;11.344;2023-05-24T04:07:15;11.27;;;3.05;;
25854;SDS011;13680;49.936;11.344;2023-05-24T04:09:41;14.10;;;3.50;;
25854;SDS011;13680;49.936;11.344;2023-05-24T04:12:07;17.23;;;3.28;;
25854;SDS011;13680;49.936;11.344;2023-05-24T04:14:32;9.50;;;3.05;;
25854;SDS011;13680;49.936;11.344;2023-05-24T04:16:59;13.48;;;3.22;;
25854;SDS011;13680;49.936;11.344;2023-05-24T04:19:28;16.33;;;3.33;;
25854;SDS011;13680;49.936;11.344;2023-05-24T04:21:53;18.50;;;3.55;;
25854;SDS011;13680;49.936;11.344;2023-05-24T04:24:18;13.52;;;3.10;;
25854;SDS011;13680;49.936;11.344;2023-05-24T04:26:43;18.77;;;3.38;;
25854;SDS011;13680;49.936;11.344;2023-05-24T04:29:09;16.40;;;3.47;;
25854;SDS011;13680;49.936;11.344;2023-05-24T04:31:34;16.50;;;3.60;;
25854;SDS011;13680;49.936;11.344;2023-05-24T04:34:00;20.17;;;3.17;;
25854;SDS011;13680;49.936;11.344;2023-05-24T04:36:26;18.58;;;3.20;;
25854;SDS011;13680;49.936;11.344;2023-05-24T04:38:52;12.43;;;2.92;;
25854;SDS011;13680;49.936;11.344;2023-05-24T04:41:20;12.43;;;3.33;;
25854;SDS011;13680;49.936;11.344;2023-05-24T04:43:46;23.13;;;3.75;;
25854;SDS011;13680;49.936;11.344;2023-05-24T04:46:11;17.20;;;3.17;;
25854;SDS011;13680;49.936;11.344;2023-05-24T04:48:37;18.88;;;3.40;;
25854;SDS011;13680;49.936;11.344;2023-05-24T04:51:02;13.55;;;3.30;;
25854;SDS011;13680;49.936;11.344;2023-05-24T04:53:28;14.98;;;3.20;;
25854;SDS011;13680;49.936;11.344;2023-05-24T04:55:54;12.32;;;3.25;;
25854;SDS011;13680;49.936;11.344;2023-05-24T04:58:19;13.13;;;2.92;;
25854;SDS011;13680;49.936;11.344;2023-05-24T05:00:45;17.33;;;3.22;;
25854;SDS011;13680;49.936;11.344;2023-05-24T05:03:10;21.10;;;3.10;;
25854;SDS011;13680;49.936;11.344;2023-05-24T05:05:36;23.63;;;3.58;;
25854;SDS011;13680;49.936;11.344;2023-05-24T05:08:01;16.20;;;3.25;;
25854;SDS011;13680;49.936;11.344;2023-05-24T05:10:27;15.30;;;3.50;;
25854;SDS011;13680;49.936;11.344;2023-05-24T05:12:53;13.32;;;2.80;;
25854;SDS011;13680;49.936;11.344;2023-05-24T05:15:19;16.38;;;3.13;;
25854;SDS011;13680;49.936;11.344;2023-05-24T05:17:46;9.98;;;3.28;;
25854;SDS011;13680;49.936;11.344;2023-05-24T05:20:11;11.00;;;2.72;;
25854;SDS011;13680;49.936;11.344;2023-05-24T05:22:37;14.07;;;3.22;;
25854;SDS011;13680;49.936;11.344;2023-05-24T05:25:02;13.02;;;3.25;;
25854;SDS011;13680;49.936;11.344;2023-05-24T05:27:28;20.88;;;4.68;;
25854;SDS011;13680;49.936;11.344;2023-05-24T05:29:53;11.05;;;3.13;;
25854;SDS011;13680;49.936;11.344;2023-05-24T05:32:18;19.23;;;3.58;;
25854;SDS011;13680;49.936;11.344;2023-05-24T05:34:44;16.58;;;3.85;;
25854;SDS011;13680;49.936;11.344;2023-05-24T05:37:09;15.13;;;3.13;;
25854;SDS011;13680;49.936;11.344;2023-05-24T05:39:35;19.73;;;3.38;;
25854;SDS011;13680;49.936;11.344;2023-05-24T05:42:00;25.75;;;3.75;;
25854;SDS011;13680;49.936;11.344;2023-05-24T05:44:26;21.77;;;3.25;;
25854;SDS011;13680;49.936;11.344;2023-05-24T05:46:51;15.85;;;3.63;;
25854;SDS011;13680;49.936;11.344;2023-05-24T05:49:17;14.82;;;3.67;;
25854;SDS011;13680;49.936;11.344;2023-05-24T05:51:43;15.10;;;3.58;;
25854;SDS011;13680;49.936;11.344;2023-05-24T05:54:08;13.63;;;3.50;;
25854;SDS011;13680;49.936;11.344;2023-05-24T05:56:38;15.45;;;4.35;;
25854;SDS011;13680;49.936;11.344;2023-05-24T05:59:09;19.65;;;3.88;;
25854;SDS011;13680;49.936;11.344;2023-05-24T06:01:34;12.25;;;3.47;;
25854;SDS011;13680;49.936;11.344;2023-05-24T06:04:00;22.60;;;4.22;;
25854;SDS011;13680;49.936;11.344;2023-05-24T06:06:25;10.55;;;3.22;;
25854;SDS011;13680;49.936;11.344;2023-05-24T06:08:50;17.25;;;4.28;;
25854;SDS011;13680;49.936;11.344;2023-05-24T06:11:16;19.83;;;3.67;;
25854;SDS011;13680;49.936;11.344;2023-05-24T06:13:41;12.32;;;3.17;;
25854;SDS011;13680;49.936;11.344;2023-05-24T06:16:06;12.65;;;3.63;;
25854;SDS011;13680;49.936;11.344;2023-05-24T06:18:32;18.17;;;3.35;;
25854;SDS011;13680;49.936;11.344;2023-05-24T06:20:58;20.45;;;4.03;;
25854;SDS011;13680;49.936;11.344;2023-05-24T06:23:23;16.67;;;3.47;;
25854;SDS011;13680;49.936;11.344;2023-05-24T06:25:49;13.95;;;3.58;;
25854;SDS011;13680;49.936;11.344;2023-05-24T06:28:14;15.27;;;4.15;;
25854;SDS011;13680;49.936;11.344;2023-05-24T06:30:40;17.90;;;4.43;;
25854;SDS011;13680;49.936;11.344;2023-05-24T06:33:06;16.88;;;3.30;;
25854;SDS011;13680;49.936;11.344;2023-05-24T06:35:31;17.48;;;3.85;;
25854;SDS011;13680;49.936;11.344;2023-05-24T06:37:56;18.95;;;3.67;;
25854;SDS011;13680;49.936;11.344;2023-05-24T06:40:21;16.67;;;4.25;;
25854;SDS011;13680;49.936;11.344;2023-05-24T06:42:47;20.42;;;4.20;;
25854;SDS011;13680;49.936;11.344;2023-05-24T06:45:12;14.35;;;3.70;;
25854;SDS011;13680;49.936;11.344;2023-05-24T06:47:38;14.23;;;4.80;;
25854;SDS011;13680;49.936;11.344;2023-05-24T06:50:04;17.05;;;3.33;;
25854;SDS011;13680;49.936;11.344;2023-05-24T06:52:30;13.90;;;3.47;;
25854;SDS011;13680;49.936;11.344;2023-05-24T06:54:55;15.05;;;3.47;;
25854;SDS011;13680;49.936;11.344;2023-05-24T06:57:21;16.85;;;5.00;;
25854;SDS011;13680;49.936;11.344;2023-05-24T06:59:46;18.13;;;4.13;;
25854;SDS011;13680;49.936;11.344;2023-05-24T07:02:12;16.23;;;3.35;;
25854;SDS011;13680;49.936;11.344;2023-05-24T07:04:37;19.58;;;4.10;;
25854;SDS011;13680;49.936;11.344;2023-05-24T07:07:05;15.02;;;4.32;;
25854;SDS011;13680;49.936;11.344;2023-05-24T07:09:31;16.90;;;3.97;;
25854;SDS011;13680;49.936;11.344;2023-05-24T07:11:56;17.65;;;3.33;;
25854;SDS011;13680;49.936;11.344;2023-05-24T07:14:21;12.27;;;4.30;;
25854;SDS011;13680;49.936;11.344;2023-05-24T07:16:48;17.20;;;3.72;;
25854;SDS011;13680;49.936;11.344;2023-05-24T07:19:13;17.15;;;5.72;;
25854;SDS011;13680;49.936;11.344;2023-05-24T07:21:39;15.45;;;4.32;;
25854;SDS011;13680;49.936;11.344;2023-05-24T07:24:04;14.02;;;4.03;;
25854;SDS011;13680;49.936;11.344;2023-05-24T07:26:30;15.90;;;3.80;;
25854;SDS011;13680;49.936;11.344;2023-05-24T07:28:55;16.73;;;4.43;;
25854;SDS011;13680;49.936;11.344;2023-05-24T07:31:21;16.60;;;4.20;;
25854;SDS011;13680;49.936;11.344;2023-05-24T07:33:47;15.00;;;4.07;;
25854;SDS011;13680;49.936;11.344;2023-05-24T07:36:12;15.35;;;4.82;;
25854;SDS011;13680;49.936;11.344;2023-05-24T07:38:37;15.88;;;3.97;;
25854;SDS011;13680;49.936;11.344;2023-05-24T07:41:03;19.48;;;4.30;;
25854;SDS011;13680;49.936;11.344;2023-05-24T07:43:31;14.85;;;4.68;;
25854;SDS011;13680;49.936;11.344;2023-05-24T07:45:56;16.10;;;4.82;;
25854;SDS011;13680;49.936;11.344;2023-05-24T07:48:22;19.55;;;4.68;;
25854;SDS011;13680;49.936;11.344;2023-05-24T07:50:48;11.70;;;5.05;;
25854;SDS011;13680;49.936;11.344;2023-05-24T07:53:14;16.48;;;4.68;;
25854;SDS011;13680;49.936;11.344;2023-05-24T07:55:40;17.35;;;4.68;;
25854;SDS011;13680;49.936;11.344;2023-05-24T07:58:05;14.63;;;4.78;;
25854;SDS011;13680;49.936;11.344;2023-05-24T08:00:31;13.68;;;4.88;;
25854;SDS011;13680;49.936;11.344;2023-05-24T08:02:58;14.45;;;5.18;;
25854;SDS011;13680;49.936;11.344;2023-05-24T08:05:23;13.48;;;5.82;;
25854;SDS011;13680;49.936;11.344;2023-05-24T08:07:49;21.58;;;6.85;;
25854;SDS011;13680;49.936;11.344;2023-05-24T08:10:15;18.40;;;6.47;;
25854;SDS011;13680;49.936;11.344;2023-05-24T08:12:41;16.67;;;7.85;;
25854;SDS011;13680;49.936;11.344;2023-05-24T08:15:06;20.92;;;6.72;;
25854;SDS011;13680;49.936;11.344;2023-05-24T08:17:32;19.08;;;7.03;;
25854;SDS011;13680;49.936;11.344;2023-05-24T08:19:58;23.58;;;7.25;;
25854;SDS011;13680;49.936;11.344;2023-05-24T08:22:23;39.25;;;7.55;;
25854;SDS011;13680;49.936;11.344;2023-05-24T08:24:48;16.63;;;6.53;;
25854;SDS011;13680;49.936;11.344;2023-05-24T08:27:14;18.98;;;7.45;;
25854;SDS011;13680;49.936;11.344;2023-05-24T08:29:40;19.40;;;6.90;;
25854;SDS011;13680;49.936;11.344;2023-05-24T08:32:05;17.90;;;6.55;;
25854;SDS011;13680;49.936;11.344;2023-05-24T08:34:36;24.17;;;7.60;;
25854;SDS011;13680;49.936;11.344;2023-05-24T08:37:02;15.32;;;7.38;;
25854;SDS011;13680;49.936;11.344;2023-05-24T08:39:28;19.42;;;7.30;;
25854;SDS011;13680;49.936;11.344;2023-05-24T08:41:54;18.15;;;7.10;;
25854;SDS011;13680;49.936;11.344;2023-05-24T08:44:20;14.52;;;7.03;;
25854;SDS011;13680;49.936;11.344;2023-05-24T08:46:46;17.63;;;6.90;;
25854;SDS011;13680;49.936;11.344;2023-05-24T08:49:13;19.35;;;7.38;;
25854;SDS011;13680;49.936;11.344;2023-05-24T08:51:39;17.92;;;7.00;;
25854;SDS011;13680;49.936;11.344;2023-05-24T08:54:04;17.33;;;6.85;;
25854;SDS011;13680;49.936;11.344;2023-05-24T08:56:31;16.85;;;7.47;;
25854;SDS011;13680;49.936;11.344;2023-05-24T08:58:57;17.02;;;6.05;;
25854;SDS011;13680;49.936;11.344;2023-05-24T09:01:23;16.48;;;6.50;;
25854;SDS011;13680;49.936;11.344;2023-05-24T09:03:49;21.65;;;6.65;;
25854;SDS011;13680;49.936;11.344;2023-05-24T09:06:16;12.00;;;5.75;;
25854;SDS011;13680;49.936;11.344;2023-05-24T09:08:42;19.08;;;6.97;;
25854;SDS011;13680;49.936;11.344;2023-05-24T09:11:08;23.95;;;7.20;;
25854;SDS011;13680;49.936;11.344;2023-05-24T09:13:33;19.05;;;6.32;;
25854;SDS011;13680;49.936;11.344;2023-05-24T09:16:00;19.15;;;6.40;;
25854;SDS011;13680;49.936;11.344;2023-05-24T09:18:26;15.52;;;5.40;;
25854;SDS011;13680;49.936;11.344;2023-05-24T09:20:52;20.05;;;5.97;;
25854;SDS011;13680;49.936;11.344;2023-05-24T09:23:17;13.77;;;5.90;;
25854;SDS011;13680;49.936;11.344;2023-05-24T09:25:44;14.75;;;5.43;;
25854;SDS011;13680;49.936;11.344;2023-05-24T09:28:12;18.45;;;5.28;;
25854;SDS011;13680;49.936;11.344;2023-05-24T09:30:42;14.48;;;5.10;;
25854;SDS011;13680;49.936;11.344;2023-05-24T09:33:08;19.42;;;5.65;;
25854;SDS011;13680;49.936;11.344;2023-05-24T09:35:33;17.40;;;5.43;;
25854;SDS011;13680;49.936;11.344;2023-05-24T09:38:00;14.68;;;4.50;;
25854;SDS011;13680;49.936;11.344;2023-05-24T09:40:27;12.82;;;5.13;;
25854;SDS011;13680;49.936;11.344;2023-05-24T09:43:06;15.90;;;4.30;;
25854;SDS011;13680;49.936;11.344;2023-05-24T09:45:54;11.85;;;4.68;;
25854;SDS011;13680;49.936;11.344;2023-05-24T09:48:19;16.08;;;5.53;;
25854;SDS011;13680;49.936;11.344;2023-05-24T09:50:59;8.80;;;4.00;;
25854;SDS011;13680;49.936;11.344;2023-05-24T09:53:30;15.48;;;4.80;;
25854;SDS011;13680;49.936;11.344;2023-05-24T09:55:58;12.45;;;3.72;;
25854;SDS011;13680;49.936;11.344;2023-05-24T09:58:28;13.40;;;3.65;;
25854;SDS011;13680;49.936;11.344;2023-05-24T10:01:02;14.43;;;3.70;;
25854;SDS011;13680;49.936;11.344;2023-05-24T10:03:30;9.48;;;3.10;;
25854;SDS011;13680;49.936;11.344;2023-05-24T10:05:55;12.40;;;2.88;;
25854;SDS011;13680;49.936;11.344;2023-05-24T10:08:22;9.63;;;3.63;;
25854;SDS011;13680;49.936;11.344;2023-05-24T10:10:48;8.98;;;3.05;;
25854;SDS011;13680;49.936;11.344;2023-05-24T10:13:13;12.75;;;4.13;;
25854;SDS011;13680;49.936;11.344;2023-05-24T10:15:42;9.70;;;2.80;;
25854;SDS011;13680;49.936;11.344;2023-05-24T10:18:08;15.60;;;3.88;;
25854;SDS011;13680;49.936;11.344;2023-05-24T10:20:33;18.80;;;5.13;;
25854;SDS011;13680;49.936;11.344;2023-05-24T10:23:00;10.35;;;3.30;;
25854;SDS011;13680;49.936;11.344;2023-05-24T10:25:28;8.75;;;2.75;;
25854;SDS011;13680;49.936;11.344;2023-05-24T10:27:58;7.90;;;3.28;;
25854;SDS011;13680;49.936;11.344;2023-05-24T10:30:31;7.30;;;2.50;;
25854;SDS011;13680;49.936;11.344;2023-05-24T10:33:01;9.20;;;2.83;;
25854;SDS011;13680;49.936;11.344;2023-05-24T10:35:30;11.65;;;3.15;;
25854;SDS011;13680;49.936;11.344;2023-05-24T10:37:57;7.88;;;3.00;;
25854;SDS011;13680;49.936;11.344;2023-05-24T10:40:23;10.63;;;3.47;;
25854;SDS011;13680;49.936;11.344;2023-05-24T10:42:50;10.65;;;2.75;;
25854;SDS011;13680;49.936;11.344;2023-05-24T10:45:32;12.13;;;3.40;;
25854;SDS011;13680;49.936;11.344;2023-05-24T10:48:06;10.30;;;3.55;;
25854;SDS011;13680;49.936;11.344;2023-05-24T10:50:52;12.27;;;2.65;;
25854;SDS011;13680;49.936;11.344;2023-05-24T10:53:18;7.00;;;2.25;;
25854;SDS011;13680;49.936;11.344;2023-05-24T10:55:50;8.18;;;3.00;;
25854;SDS011;13680;49.936;11.344;2023-05-24T10:58:21;6.60;;;2.42;;
25854;SDS011;13680;49.936;11.344;2023-05-24T11:00:51;9.32;;;3.38;;
25854;SDS011;13680;49.936;11.344;2023-05-24T11:03:17;9.30;;;3.00;;
25854;SDS011;13680;49.936;11.344;2023-05-24T11:08:14;11.35;;;3.35;;
25854;SDS011;13680;49.936;11.344;2023-05-24T11:10:44;8.00;;;2.78;;
25854;SDS011;13680;49.936;11.344;2023-05-24T11:13:10;6.25;;;3.03;;
25854;SDS011;13680;49.936;11.344;2023-05-24T11:15:36;11.25;;;3.15;;
25854;SDS011;13680;49.936;11.344;2023-05-24T11:20:40;8.35;;;3.45;;
25854;SDS011;13680;49.936;11.344;2023-05-24T11:23:07;11.25;;;3.40;;
25854;SDS011;13680;49.936;11.344;2023-05-24T11:25:33;12.80;;;2.95;;
25854;SDS011;13680;49.936;11.344;2023-05-24T11:28:01;12.40;;;3.80;;
25854;SDS011;13680;49.936;11.344;2023-05-24T11:30:28;10.40;;;3.22;;
25854;SDS011;13680;49.936;11.344;2023-05-24T11:32:56;11.27;;;3.40;;
25854;SDS011;13680;49.936;11.344;2023-05-24T11:35:22;9.18;;;3.00;;
25854;SDS011;13680;49.936;11.344;2023-05-24T11:37:52;8.45;;;2.88;;
25854;SDS011;13680;49.936;11.344;2023-05-24T11:40:18;13.00;;;3.38;;
25854;SDS011;13680;49.936;11.344;2023-05-24T11:42:44;13.68;;;3.30;;
25854;SDS011;13680;49.936;11.344;2023-05-24T11:45:10;15.23;;;4.80;;
25854;SDS011;13680;49.936;11.344;2023-05-24T11:47:38;18.25;;;3.05;;
25854;SDS011;13680;49.936;11.344;2023-05-24T11:50:04;9.43;;;3.28;;
25854;SDS011;13680;49.936;11.344;2023-05-24T11:52:30;10.73;;;3.78;;
25854;SDS011;13680;49.936;11.344;2023-05-24T11:54:56;10.20;;;3.70;;
25854;SDS011;13680;49.936;11.344;2023-05-24T11:57:40;11.40;;;3.28;;
25854;SDS011;13680;49.936;11.344;2023-05-24T12:00:12;9.63;;;3.13;;
25854;SDS011;13680;49.936;11.344;2023-05-24T12:02:41;12.48;;;3.58;;
25854;SDS011;13680;49.936;11.344;2023-05-24T12:05:07;10.18;;;2.90;;
25854;SDS011;13680;49.936;11.344;2023-05-24T12:07:33;13.30;;;2.88;;
25854;SDS011;13680;49.936;11.344;2023-05-24T12:10:00;14.45;;;3.13;;
25854;SDS011;13680;49.936;11.344;2023-05-24T12:12:26;11.98;;;2.65;;
25854;SDS011;13680;49.936;11.344;2023-05-24T12:14:53;8.45;;;2.70;;
25854;SDS011;13680;49.936;11.344;2023-05-24T12:17:19;11.60;;;3.63;;
25854;SDS011;13680;49.936;11.344;2023-05-24T12:19:47;11.40;;;2.85;;
25854;SDS011;13680;49.936;11.344;2023-05-24T12:22:13;10.02;;;2.95;;
25854;SDS011;13680;49.936;11.344;2023-05-24T12:24:39;9.25;;;2.88;;
25854;SDS011;13680;49.936;11.344;2023-05-24T12:27:05;12.30;;;3.28;;
25854;SDS011;13680;49.936;11.344;2023-05-24T12:29:37;6.03;;;2.17;;
25854;SDS011;13680;49.936;11.344;2023-05-24T12:32:04;8.70;;;3.35;;
25854;SDS011;13680;49.936;11.344;2023-05-24T12:34:35;10.95;;;3.63;;
25854;SDS011;13680;49.936;11.344;2023-05-24T12:37:01;10.07;;;3.28;;
25854;SDS011;13680;49.936;11.344;2023-05-24T12:39:26;13.07;;;3.10;;
25854;SDS011;13680;49.936;11.344;2023-05-24T12:41:55;12.65;;;3.47;;
25854;SDS011;13680;49.936;11.344;2023-05-24T12:44:26;10.85;;;3.30;;
25854;SDS011;13680;49.936;11.344;2023-05-24T12:46:53;5.22;;;2.63;;
25854;SDS011;13680;49.936;11.344;2023-05-24T12:49:19;10.73;;;3.20;;
25854;SDS011;13680;49.936;11.344;2023-05-24T12:51:45;10.65;;;2.85;;
25854;SDS011;13680;49.936;11.344;2023-05-24T12:54:10;9.35;;;2.70;;
25854;SDS011;13680;49.936;11.344;2023-05-24T12:56:36;7.72;;;2.47;;
25854;SDS011;13680;49.936;11.344;2023-05-24T12:59:02;8.68;;;2.50;;
25854;SDS011;13680;49.936;11.344;2023-05-24T13:01:28;10.32;;;2.65;;
25854;SDS011;13680;49.936;11.344;2023-05-24T13:03:54;14.23;;;3.00;;
25854;SDS011;13680;49.936;11.344;2023-05-24T13:06:19;10.77;;;2.97;;
25854;SDS011;13680;49.936;11.344;2023-05-24T13:08:45;10.82;;;3.10;;
25854;SDS011;13680;49.936;11.344;2023-05-24T13:11:10;11.60;;;3.03;;
25854;SDS011;13680;49.936;11.344;2023-05-24T13:13:35;7.45;;;2.50;;
25854;SDS011;13680;49.936;11.344;2023-05-24T13:16:02;8.70;;;2.70;;
25854;SDS011;13680;49.936;11.344;2023-05-24T13:18:29;5.28;;;2.50;;
25854;SDS011;13680;49.936;11.344;2023-05-24T13:20:54;7.93;;;2.65;;
25854;SDS011;13680;49.936;11.344;2023-05-24T13:23:21;8.57;;;2.80;;
25854;SDS011;13680;49.936;11.344;2023-05-24T13:25:47;9.75;;;2.75;;
25854;SDS011;13680;49.936;11.344;2023-05-24T13:28:13;13.52;;;2.90;;
25854;SDS011;13680;49.936;11.344;2023-05-24T13:30:39;10.07;;;2.90;;
25854;SDS011;13680;49.936;11.344;2023-05-24T13:33:04;9.73;;;2.80;;
25854;SDS011;13680;49.936;11.344;2023-05-24T13:35:29;9.90;;;2.75;;
25854;SDS011;13680;49.936;11.344;2023-05-24T13:37:55;9.73;;;2.65;;
25854;SDS011;13680;49.936;11.344;2023-05-24T13:40:21;7.25;;;2.13;;
25854;SDS011;13680;49.936;11.344;2023-05-24T13:42:49;7.15;;;2.78;;
25854;SDS011;13680;49.936;11.344;2023-05-24T13:45:15;8.50;;;2.47;;
25854;SDS011;13680;49.936;11.344;2023-05-24T13:47:40;7.15;;;2.60;;
25854;SDS011;13680;49.936;11.344;2023-05-24T13:50:05;8.75;;;2.38;;
25854;SDS011;13680;49.936;11.344;2023-05-24T13:52:31;8.57;;;2.40;;
25854;SDS011;13680;49.936;11.344;2023-05-24T13:54:56;7.95;;;2.60;;
25854;SDS011;13680;49.936;11.344;2023-05-24T13:57:22;6.70;;;2.13;;
25854;SDS011;13680;49.936;11.344;2023-05-24T13:59:47;8.25;;;2.28;;
25854;SDS011;13680;49.936;11.344;2023-05-24T14:02:13;10.05;;;2.63;;
25854;SDS011;13680;49.936;11.344;2023-05-24T14:04:38;11.10;;;2.55;;
25854;SDS011;13680;49.936;11.344;2023-05-24T14:07:04;9.25;;;2.63;;
25854;SDS011;13680;49.936;11.344;2023-05-24T14:09:31;8.00;;;2.33;;
25854;SDS011;13680;49.936;11.344;2023-05-24T14:11:57;6.07;;;2.03;;
25854;SDS011;13680;49.936;11.344;2023-05-24T14:14:22;8.60;;;2.22;;
25854;SDS011;13680;49.936;11.344;2023-05-24T14:16:48;9.25;;;2.72;;
25854;SDS011;13680;49.936;11.344;2023-05-24T14:19:16;10.75;;;2.30;;
25854;SDS011;13680;49.936;11.344;2023-05-24T14:21:41;8.45;;;3.10;;
25854;SDS011;13680;49.936;11.344;2023-05-24T14:24:07;9.25;;;2.55;;
25854;SDS011;13680;49.936;11.344;2023-05-24T14:26:33;8.40;;;2.85;;
25854;SDS011;13680;49.936;11.344;2023-05-24T14:28:59;11.25;;;2.53;;
25854;SDS011;13680;49.936;11.344;2023-05-24T14:31:24;9.52;;;2.20;;
25854;SDS011;13680;49.936;11.344;2023-05-24T14:33:49;9.10;;;2.15;;
25854;SDS011;13680;49.936;11.344;2023-05-24T14:36:15;12.00;;;3.00;;
25854;SDS011;13680;49.936;11.344;2023-05-24T14:38:40;7.93;;;2.38;;